sensor_id;sensor_type;location;lat;lon;timestamp;P1;durP1;ratioP1;P2;durP2;ratioP2
23718;SDS011;43322;52.230;5.702;2022-08-06T00:00:19;2.05;;;1.20;;
23718;SDS011;43322;52.230;5.702;2022-08-06T00:02:46;4.00;;;1.60;;
23718;SDS011;43322;52.230;5.702;2022-08-06T00:05:13;1.85;;;1.30;;
23718;SDS011;43322;52.230;5.702;2022-08-06T00:07:41;2.50;;;1.30;;
23718;SDS011;43322;52.230;5.702;2022-08-06T00:10:08;1.50;;;1.40;;
23718;SDS011;43322;52.230;5.702;2022-08-06T00:12:35;2.17;;;1.38;;
23718;SDS011;43322;52.230;5.702;2022-08-06T00:15:02;2.78;;;1.60;;
23718;SDS011;43322;52.230;5.702;2022-08-06T00:17:31;1.65;;;1.30;;
23718;SDS011;43322;52.230;5.702;2022-08-06T00:19:58;2.75;;;1.52;;
23718;SDS011;43322;52.230;5.702;2022-08-06T00:22:25;3.47;;;1.88;;
23718;SDS011;43322;52.230;5.702;2022-08-06T00:24:53;1.92;;;1.73;;
23718;SDS011;43322;52.230;5.702;2022-08-06T00:27:19;2.67;;;1.50;;
23718;SDS011;43322;52.230;5.702;2022-08-06T00:29:46;1.58;;;1.42;;
23718;SDS011;43322;52.230;5.702;2022-08-06T00:32:13;2.92;;;2.05;;
23718;SDS011;43322;52.230;5.702;2022-08-06T00:34:40;2.47;;;1.50;;
23718;SDS011;43322;52.230;5.702;2022-08-06T00:37:07;3.40;;;1.63;;
23718;SDS011;43322;52.230;5.702;2022-08-06T00:39:33;3.33;;;2.20;;
23718;SDS011;43322;52.230;5.702;2022-08-06T00:42:02;3.97;;;2.13;;
23718;SDS011;43322;52.230;5.702;2022-08-06T00:44:29;3.17;;;2.10;;
23718;SDS011;43322;52.230;5.702;2022-08-06T00:46:56;3.75;;;1.90;;
23718;SDS011;43322;52.230;5.702;2022-08-06T00:49:23;1.73;;;1.63;;
23718;SDS011;43322;52.230;5.702;2022-08-06T00:51:50;3.80;;;1.52;;
23718;SDS011;43322;52.230;5.702;2022-08-06T00:54:17;1.70;;;1.60;;
23718;SDS011;43322;52.230;5.702;2022-08-06T00:56:43;1.90;;;1.80;;
23718;SDS011;43322;52.230;5.702;2022-08-06T00:59:12;4.80;;;1.40;;
23718;SDS011;43322;52.230;5.702;2022-08-06T01:01:38;6.00;;;2.03;;
23718;SDS011;43322;52.230;5.702;2022-08-06T01:04:05;5.25;;;1.80;;
23718;SDS011;43322;52.230;5.702;2022-08-06T01:06:32;2.95;;;1.73;;
23718;SDS011;43322;52.230;5.702;2022-08-06T01:08:59;1.90;;;1.80;;
23718;SDS011;43322;52.230;5.702;2022-08-06T01:11:26;4.53;;;1.60;;
23718;SDS011;43322;52.230;5.702;2022-08-06T01:13:52;1.60;;;1.50;;
23718;SDS011;43322;52.230;5.702;2022-08-06T01:16:23;2.33;;;1.42;;
23718;SDS011;43322;52.230;5.702;2022-08-06T01:18:57;1.67;;;1.58;;
23718;SDS011;43322;52.230;5.702;2022-08-06T01:21:39;4.28;;;1.67;;
23718;SDS011;43322;52.230;5.702;2022-08-06T01:24:23;1.38;;;1.17;;
23718;SDS011;43322;52.230;5.702;2022-08-06T01:27:33;1.60;;;1.50;;
23718;SDS011;43322;52.230;5.702;2022-08-06T01:30:05;1.45;;;1.35;;
23718;SDS011;43322;52.230;5.702;2022-08-06T01:32:38;3.55;;;2.00;;
23718;SDS011;43322;52.230;5.702;2022-08-06T01:35:10;3.03;;;1.90;;
23718;SDS011;43322;52.230;5.702;2022-08-06T01:37:41;2.45;;;1.80;;
23718;SDS011;43322;52.230;5.702;2022-08-06T01:40:14;1.90;;;1.80;;
23718;SDS011;43322;52.230;5.702;2022-08-06T01:42:45;2.28;;;1.90;;
23718;SDS011;43322;52.230;5.702;2022-08-06T01:45:15;4.10;;;1.95;;
23718;SDS011;43322;52.230;5.702;2022-08-06T01:47:47;2.00;;;1.80;;
23718;SDS011;43322;52.230;5.702;2022-08-06T01:50:16;2.30;;;1.60;;
23718;SDS011;43322;52.230;5.702;2022-08-06T01:52:46;4.72;;;1.85;;
23718;SDS011;43322;52.230;5.702;2022-08-06T01:55:16;3.08;;;2.15;;
23718;SDS011;43322;52.230;5.702;2022-08-06T01:57:46;3.67;;;1.63;;
23718;SDS011;43322;52.230;5.702;2022-08-06T02:00:16;2.92;;;1.58;;
23718;SDS011;43322;52.230;5.702;2022-08-06T02:02:43;1.85;;;1.65;;
23718;SDS011;43322;52.230;5.702;2022-08-06T02:05:13;2.70;;;1.80;;
23718;SDS011;43322;52.230;5.702;2022-08-06T02:07:44;1.70;;;1.60;;
23718;SDS011;43322;52.230;5.702;2022-08-06T02:10:14;3.60;;;1.85;;
23718;SDS011;43322;52.230;5.702;2022-08-06T02:12:43;1.63;;;1.50;;
23718;SDS011;43322;52.230;5.702;2022-08-06T02:15:13;1.85;;;1.65;;
23718;SDS011;43322;52.230;5.702;2022-08-06T02:17:45;2.45;;;1.63;;
23718;SDS011;43322;52.230;5.702;2022-08-06T02:20:15;5.82;;;1.83;;
23718;SDS011;43322;52.230;5.702;2022-08-06T02:22:45;1.65;;;1.55;;
23718;SDS011;43322;52.230;5.702;2022-08-06T02:25:13;3.60;;;1.98;;
23718;SDS011;43322;52.230;5.702;2022-08-06T02:27:43;2.90;;;1.50;;
23718;SDS011;43322;52.230;5.702;2022-08-06T02:30:13;1.70;;;1.60;;
23718;SDS011;43322;52.230;5.702;2022-08-06T02:32:40;5.15;;;1.65;;
23718;SDS011;43322;52.230;5.702;2022-08-06T02:35:08;2.40;;;1.58;;
23718;SDS011;43322;52.230;5.702;2022-08-06T02:37:36;3.08;;;2.17;;
23718;SDS011;43322;52.230;5.702;2022-08-06T02:40:07;3.85;;;1.67;;
23718;SDS011;43322;52.230;5.702;2022-08-06T02:42:38;4.05;;;1.90;;
23718;SDS011;43322;52.230;5.702;2022-08-06T02:45:14;2.55;;;2.08;;
23718;SDS011;43322;52.230;5.702;2022-08-06T02:47:45;3.25;;;2.03;;
23718;SDS011;43322;52.230;5.702;2022-08-06T02:50:18;2.83;;;2.00;;
23718;SDS011;43322;52.230;5.702;2022-08-06T02:52:49;2.45;;;1.90;;
23718;SDS011;43322;52.230;5.702;2022-08-06T02:55:21;3.20;;;2.13;;
23718;SDS011;43322;52.230;5.702;2022-08-06T02:57:57;4.22;;;2.47;;
23718;SDS011;43322;52.230;5.702;2022-08-06T03:00:28;2.97;;;2.78;;
23718;SDS011;43322;52.230;5.702;2022-08-06T03:02:59;3.80;;;2.28;;
23718;SDS011;43322;52.230;5.702;2022-08-06T03:05:27;6.93;;;2.72;;
23718;SDS011;43322;52.230;5.702;2022-08-06T03:07:55;3.65;;;2.38;;
23718;SDS011;43322;52.230;5.702;2022-08-06T03:10:24;2.90;;;2.70;;
23718;SDS011;43322;52.230;5.702;2022-08-06T03:12:53;2.58;;;2.38;;
23718;SDS011;43322;52.230;5.702;2022-08-06T03:15:20;3.10;;;2.08;;
23718;SDS011;43322;52.230;5.702;2022-08-06T03:17:51;3.70;;;2.42;;
23718;SDS011;43322;52.230;5.702;2022-08-06T03:20:23;1.90;;;1.80;;
23718;SDS011;43322;52.230;5.702;2022-08-06T03:22:52;3.17;;;2.30;;
23718;SDS011;43322;52.230;5.702;2022-08-06T03:25:23;2.60;;;2.40;;
23718;SDS011;43322;52.230;5.702;2022-08-06T03:27:52;2.63;;;2.20;;
23718;SDS011;43322;52.230;5.702;2022-08-06T03:30:20;2.17;;;2.08;;
23718;SDS011;43322;52.230;5.702;2022-08-06T03:32:47;3.20;;;2.10;;
23718;SDS011;43322;52.230;5.702;2022-08-06T03:35:17;2.28;;;2.15;;
23718;SDS011;43322;52.230;5.702;2022-08-06T03:37:44;1.98;;;1.80;;
23718;SDS011;43322;52.230;5.702;2022-08-06T03:40:13;2.15;;;1.95;;
23718;SDS011;43322;52.230;5.702;2022-08-06T03:42:41;3.58;;;1.95;;
23718;SDS011;43322;52.230;5.702;2022-08-06T03:45:08;2.22;;;2.10;;
23718;SDS011;43322;52.230;5.702;2022-08-06T03:47:37;1.95;;;1.70;;
23718;SDS011;43322;52.230;5.702;2022-08-06T03:50:08;3.90;;;2.30;;
23718;SDS011;43322;52.230;5.702;2022-08-06T03:52:39;4.70;;;2.60;;
23718;SDS011;43322;52.230;5.702;2022-08-06T03:55:08;2.60;;;2.40;;
23718;SDS011;43322;52.230;5.702;2022-08-06T03:57:43;3.22;;;2.95;;
23718;SDS011;43322;52.230;5.702;2022-08-06T04:00:14;5.18;;;3.50;;
23718;SDS011;43322;52.230;5.702;2022-08-06T04:02:44;3.40;;;3.10;;
23718;SDS011;43322;52.230;5.702;2022-08-06T04:05:14;3.13;;;2.70;;
23718;SDS011;43322;52.230;5.702;2022-08-06T04:07:44;4.18;;;3.03;;
23718;SDS011;43322;52.230;5.702;2022-08-06T04:10:14;3.17;;;2.97;;
23718;SDS011;43322;52.230;5.702;2022-08-06T04:12:42;4.82;;;2.95;;
23718;SDS011;43322;52.230;5.702;2022-08-06T04:15:10;4.10;;;2.67;;
23718;SDS011;43322;52.230;5.702;2022-08-06T04:17:38;2.75;;;2.40;;
23718;SDS011;43322;52.230;5.702;2022-08-06T04:20:08;3.20;;;2.63;;
23718;SDS011;43322;52.230;5.702;2022-08-06T04:22:36;5.72;;;3.20;;
23718;SDS011;43322;52.230;5.702;2022-08-06T04:25:05;5.30;;;3.00;;
23718;SDS011;43322;52.230;5.702;2022-08-06T04:27:35;3.28;;;2.72;;
23718;SDS011;43322;52.230;5.702;2022-08-06T04:30:04;3.00;;;2.70;;
23718;SDS011;43322;52.230;5.702;2022-08-06T04:32:32;3.30;;;3.00;;
23718;SDS011;43322;52.230;5.702;2022-08-06T04:35:01;4.40;;;2.88;;
23718;SDS011;43322;52.230;5.702;2022-08-06T04:37:30;3.42;;;3.13;;
23718;SDS011;43322;52.230;5.702;2022-08-06T04:39:58;5.80;;;3.00;;
23718;SDS011;43322;52.230;5.702;2022-08-06T04:42:27;4.03;;;3.00;;
23718;SDS011;43322;52.230;5.702;2022-08-06T04:44:54;2.85;;;2.65;;
23718;SDS011;43322;52.230;5.702;2022-08-06T04:47:21;3.72;;;3.33;;
23718;SDS011;43322;52.230;5.702;2022-08-06T04:49:50;4.68;;;2.80;;
23718;SDS011;43322;52.230;5.702;2022-08-06T04:52:20;3.63;;;3.20;;
23718;SDS011;43322;52.230;5.702;2022-08-06T04:54:48;3.35;;;3.05;;
23718;SDS011;43322;52.230;5.702;2022-08-06T04:57:15;3.38;;;2.97;;
23718;SDS011;43322;52.230;5.702;2022-08-06T04:59:44;3.30;;;3.03;;
23718;SDS011;43322;52.230;5.702;2022-08-06T05:02:11;3.38;;;3.10;;
23718;SDS011;43322;52.230;5.702;2022-08-06T05:04:38;4.43;;;3.13;;
23718;SDS011;43322;52.230;5.702;2022-08-06T05:07:06;3.78;;;2.85;;
23718;SDS011;43322;52.230;5.702;2022-08-06T05:09:40;3.75;;;3.55;;
23718;SDS011;43322;52.230;5.702;2022-08-06T05:12:10;4.13;;;3.22;;
23718;SDS011;43322;52.230;5.702;2022-08-06T05:14:43;4.00;;;3.60;;
23718;SDS011;43322;52.230;5.702;2022-08-06T05:17:15;3.08;;;2.88;;
23718;SDS011;43322;52.230;5.702;2022-08-06T05:19:47;3.92;;;3.50;;
23718;SDS011;43322;52.230;5.702;2022-08-06T05:22:19;3.67;;;3.38;;
23718;SDS011;43322;52.230;5.702;2022-08-06T05:24:48;4.35;;;3.13;;
23718;SDS011;43322;52.230;5.702;2022-08-06T05:27:15;4.25;;;3.70;;
23718;SDS011;43322;52.230;5.702;2022-08-06T05:29:42;3.42;;;3.13;;
23718;SDS011;43322;52.230;5.702;2022-08-06T05:32:10;5.68;;;3.47;;
23718;SDS011;43322;52.230;5.702;2022-08-06T05:34:38;3.47;;;3.28;;
23718;SDS011;43322;52.230;5.702;2022-08-06T05:37:05;4.50;;;3.05;;
23718;SDS011;43322;52.230;5.702;2022-08-06T05:39:32;4.13;;;3.35;;
23718;SDS011;43322;52.230;5.702;2022-08-06T05:41:58;4.10;;;3.63;;
23718;SDS011;43322;52.230;5.702;2022-08-06T05:44:25;4.13;;;3.72;;
23718;SDS011;43322;52.230;5.702;2022-08-06T05:46:52;3.33;;;3.05;;
23718;SDS011;43322;52.230;5.702;2022-08-06T05:49:26;3.78;;;3.00;;
23718;SDS011;43322;52.230;5.702;2022-08-06T05:52:00;3.65;;;2.97;;
23718;SDS011;43322;52.230;5.702;2022-08-06T05:54:32;4.07;;;3.67;;
23718;SDS011;43322;52.230;5.702;2022-08-06T05:57:03;4.55;;;3.85;;
23718;SDS011;43322;52.230;5.702;2022-08-06T05:59:37;4.80;;;3.40;;
23718;SDS011;43322;52.230;5.702;2022-08-06T06:02:07;3.50;;;3.22;;
23718;SDS011;43322;52.230;5.702;2022-08-06T06:04:36;4.20;;;3.28;;
23718;SDS011;43322;52.230;5.702;2022-08-06T06:07:04;4.13;;;2.70;;
23718;SDS011;43322;52.230;5.702;2022-08-06T06:09:31;4.28;;;3.60;;
23718;SDS011;43322;52.230;5.702;2022-08-06T06:11:58;4.53;;;4.10;;
23718;SDS011;43322;52.230;5.702;2022-08-06T06:14:28;4.93;;;4.25;;
23718;SDS011;43322;52.230;5.702;2022-08-06T06:17:12;4.10;;;3.72;;
23718;SDS011;43322;52.230;5.702;2022-08-06T06:19:57;3.92;;;3.10;;
23718;SDS011;43322;52.230;5.702;2022-08-06T06:22:34;4.07;;;3.67;;
23718;SDS011;43322;52.230;5.702;2022-08-06T06:25:06;4.35;;;3.20;;
23718;SDS011;43322;52.230;5.702;2022-08-06T06:27:42;3.97;;;3.30;;
23718;SDS011;43322;52.230;5.702;2022-08-06T06:30:15;3.58;;;3.28;;
23718;SDS011;43322;52.230;5.702;2022-08-06T06:32:55;5.03;;;3.17;;
23718;SDS011;43322;52.230;5.702;2022-08-06T06:35:31;4.20;;;3.80;;
23718;SDS011;43322;52.230;5.702;2022-08-06T06:38:14;3.67;;;3.38;;
23718;SDS011;43322;52.230;5.702;2022-08-06T06:40:49;6.65;;;3.40;;
23718;SDS011;43322;52.230;5.702;2022-08-06T06:43:22;3.97;;;3.58;;
23718;SDS011;43322;52.230;5.702;2022-08-06T06:45:57;4.00;;;2.75;;
23718;SDS011;43322;52.230;5.702;2022-08-06T06:48:32;2.53;;;2.40;;
23718;SDS011;43322;52.230;5.702;2022-08-06T06:51:05;4.07;;;2.67;;
23718;SDS011;43322;52.230;5.702;2022-08-06T06:53:37;3.33;;;2.40;;
23718;SDS011;43322;52.230;5.702;2022-08-06T06:56:08;2.10;;;1.92;;
23718;SDS011;43322;52.230;5.702;2022-08-06T06:58:37;3.15;;;2.10;;
23718;SDS011;43322;52.230;5.702;2022-08-06T07:01:08;3.13;;;2.08;;
23718;SDS011;43322;52.230;5.702;2022-08-06T07:03:38;2.65;;;2.28;;
23718;SDS011;43322;52.230;5.702;2022-08-06T07:06:08;1.85;;;1.75;;
23718;SDS011;43322;52.230;5.702;2022-08-06T07:08:37;3.35;;;2.00;;
23718;SDS011;43322;52.230;5.702;2022-08-06T07:11:09;2.92;;;2.00;;
23718;SDS011;43322;52.230;5.702;2022-08-06T07:13:39;2.25;;;1.70;;
23718;SDS011;43322;52.230;5.702;2022-08-06T07:16:09;1.65;;;1.55;;
23718;SDS011;43322;52.230;5.702;2022-08-06T07:18:38;4.72;;;1.80;;
23718;SDS011;43322;52.230;5.702;2022-08-06T07:21:09;2.75;;;1.75;;
23718;SDS011;43322;52.230;5.702;2022-08-06T07:23:37;5.60;;;1.80;;
23718;SDS011;43322;52.230;5.702;2022-08-06T07:26:04;4.78;;;1.60;;
23718;SDS011;43322;52.230;5.702;2022-08-06T07:28:32;4.30;;;1.60;;
23718;SDS011;43322;52.230;5.702;2022-08-06T07:31:02;2.78;;;1.00;;
23718;SDS011;43322;52.230;5.702;2022-08-06T07:33:31;1.80;;;1.02;;
23718;SDS011;43322;52.230;5.702;2022-08-06T07:36:00;0.95;;;0.93;;
23718;SDS011;43322;52.230;5.702;2022-08-06T07:38:28;2.10;;;1.08;;
23718;SDS011;43322;52.230;5.702;2022-08-06T07:40:59;4.60;;;1.05;;
23718;SDS011;43322;52.230;5.702;2022-08-06T07:43:30;0.93;;;0.75;;
23718;SDS011;43322;52.230;5.702;2022-08-06T07:46:00;1.25;;;1.08;;
23718;SDS011;43322;52.230;5.702;2022-08-06T07:48:30;2.30;;;0.93;;
23718;SDS011;43322;52.230;5.702;2022-08-06T07:51:00;2.58;;;1.00;;
23718;SDS011;43322;52.230;5.702;2022-08-06T07:53:29;2.55;;;1.20;;
23718;SDS011;43322;52.230;5.702;2022-08-06T07:55:57;2.25;;;1.23;;
23718;SDS011;43322;52.230;5.702;2022-08-06T07:58:24;1.88;;;0.90;;
23718;SDS011;43322;52.230;5.702;2022-08-06T08:00:52;1.13;;;0.80;;
23718;SDS011;43322;52.230;5.702;2022-08-06T08:03:20;2.20;;;0.90;;
23718;SDS011;43322;52.230;5.702;2022-08-06T08:06:05;1.23;;;0.70;;
23718;SDS011;43322;52.230;5.702;2022-08-06T08:08:48;1.85;;;0.90;;
23718;SDS011;43322;52.230;5.702;2022-08-06T08:11:18;2.22;;;0.90;;
23718;SDS011;43322;52.230;5.702;2022-08-06T08:13:46;1.50;;;0.80;;
23718;SDS011;43322;52.230;5.702;2022-08-06T08:16:13;1.60;;;0.80;;
23718;SDS011;43322;52.230;5.702;2022-08-06T08:18:41;2.03;;;0.80;;
23718;SDS011;43322;52.230;5.702;2022-08-06T08:21:08;1.73;;;0.90;;
23718;SDS011;43322;52.230;5.702;2022-08-06T08:23:36;1.38;;;0.65;;
23718;SDS011;43322;52.230;5.702;2022-08-06T08:26:06;2.78;;;0.77;;
23718;SDS011;43322;52.230;5.702;2022-08-06T08:28:35;4.60;;;0.75;;
23718;SDS011;43322;52.230;5.702;2022-08-06T08:31:02;1.38;;;0.63;;
23718;SDS011;43322;52.230;5.702;2022-08-06T08:33:31;1.73;;;0.90;;
23718;SDS011;43322;52.230;5.702;2022-08-06T08:35:58;0.95;;;0.50;;
23718;SDS011;43322;52.230;5.702;2022-08-06T08:38:25;0.93;;;0.60;;
23718;SDS011;43322;52.230;5.702;2022-08-06T08:40:53;1.00;;;0.60;;
23718;SDS011;43322;52.230;5.702;2022-08-06T08:43:22;0.60;;;0.60;;
23718;SDS011;43322;52.230;5.702;2022-08-06T08:45:52;0.98;;;0.57;;
23718;SDS011;43322;52.230;5.702;2022-08-06T08:48:22;0.95;;;0.68;;
23718;SDS011;43322;52.230;5.702;2022-08-06T08:50:53;2.88;;;0.60;;
23718;SDS011;43322;52.230;5.702;2022-08-06T08:53:22;1.30;;;0.70;;
23718;SDS011;43322;52.230;5.702;2022-08-06T08:55:55;1.75;;;0.70;;
23718;SDS011;43322;52.230;5.702;2022-08-06T08:58:24;1.40;;;0.80;;
23718;SDS011;43322;52.230;5.702;2022-08-06T09:00:52;0.95;;;0.70;;
23718;SDS011;43322;52.230;5.702;2022-08-06T09:03:20;2.25;;;0.70;;
23718;SDS011;43322;52.230;5.702;2022-08-06T09:05:48;0.60;;;0.60;;
23718;SDS011;43322;52.230;5.702;2022-08-06T09:08:15;0.60;;;0.50;;
23718;SDS011;43322;52.230;5.702;2022-08-06T09:10:43;0.82;;;0.60;;
23718;SDS011;43322;52.230;5.702;2022-08-06T09:13:10;1.00;;;0.50;;
23718;SDS011;43322;52.230;5.702;2022-08-06T09:15:38;2.17;;;0.45;;
23718;SDS011;43322;52.230;5.702;2022-08-06T09:18:06;1.85;;;0.80;;
23718;SDS011;43322;52.230;5.702;2022-08-06T09:20:34;0.80;;;0.52;;
23718;SDS011;43322;52.230;5.702;2022-08-06T09:23:01;0.43;;;0.43;;
23718;SDS011;43322;52.230;5.702;2022-08-06T09:25:35;1.52;;;0.50;;
23718;SDS011;43322;52.230;5.702;2022-08-06T09:28:07;0.90;;;0.60;;
23718;SDS011;43322;52.230;5.702;2022-08-06T09:30:36;1.42;;;0.68;;
23718;SDS011;43322;52.230;5.702;2022-08-06T09:33:11;0.68;;;0.68;;
23718;SDS011;43322;52.230;5.702;2022-08-06T09:35:38;0.75;;;0.75;;
23718;SDS011;43322;52.230;5.702;2022-08-06T09:38:05;1.15;;;0.60;;
23718;SDS011;43322;52.230;5.702;2022-08-06T09:40:34;0.95;;;0.60;;
23718;SDS011;43322;52.230;5.702;2022-08-06T09:43:01;1.40;;;0.52;;
23718;SDS011;43322;52.230;5.702;2022-08-06T09:45:28;0.40;;;0.40;;
23718;SDS011;43322;52.230;5.702;2022-08-06T09:48:03;0.40;;;0.40;;
23718;SDS011;43322;52.230;5.702;2022-08-06T09:50:37;1.50;;;0.55;;
23718;SDS011;43322;52.230;5.702;2022-08-06T09:53:06;0.50;;;0.47;;
23718;SDS011;43322;52.230;5.702;2022-08-06T09:55:33;0.50;;;0.40;;
23718;SDS011;43322;52.230;5.702;2022-08-06T09:58:00;0.60;;;0.57;;
23718;SDS011;43322;52.230;5.702;2022-08-06T10:00:28;1.27;;;0.55;;
23718;SDS011;43322;52.230;5.702;2022-08-06T10:02:58;0.50;;;0.50;;
23718;SDS011;43322;52.230;5.702;2022-08-06T10:05:27;1.20;;;0.50;;
23718;SDS011;43322;52.230;5.702;2022-08-06T10:08:07;0.73;;;0.45;;
23718;SDS011;43322;52.230;5.702;2022-08-06T10:10:45;0.50;;;0.40;;
23718;SDS011;43322;52.230;5.702;2022-08-06T10:13:15;2.47;;;0.82;;
23718;SDS011;43322;52.230;5.702;2022-08-06T10:15:43;0.50;;;0.47;;
23718;SDS011;43322;52.230;5.702;2022-08-06T10:18:13;0.60;;;0.60;;
23718;SDS011;43322;52.230;5.702;2022-08-06T10:21:00;2.05;;;0.50;;
23718;SDS011;43322;52.230;5.702;2022-08-06T10:23:30;0.77;;;0.47;;
23718;SDS011;43322;52.230;5.702;2022-08-06T10:25:58;0.45;;;0.45;;
23718;SDS011;43322;52.230;5.702;2022-08-06T10:28:26;1.17;;;0.73;;
23718;SDS011;43322;52.230;5.702;2022-08-06T10:30:54;3.55;;;0.60;;
23718;SDS011;43322;52.230;5.702;2022-08-06T10:33:22;0.50;;;0.50;;
23718;SDS011;43322;52.230;5.702;2022-08-06T10:35:51;2.30;;;0.52;;
23718;SDS011;43322;52.230;5.702;2022-08-06T10:38:23;0.70;;;0.40;;
23718;SDS011;43322;52.230;5.702;2022-08-06T10:40:52;0.77;;;0.40;;
23718;SDS011;43322;52.230;5.702;2022-08-06T10:43:21;0.30;;;0.30;;
23718;SDS011;43322;52.230;5.702;2022-08-06T10:45:48;0.80;;;0.63;;
23718;SDS011;43322;52.230;5.702;2022-08-06T10:48:15;1.05;;;0.52;;
23718;SDS011;43322;52.230;5.702;2022-08-06T10:50:43;0.30;;;0.30;;
23718;SDS011;43322;52.230;5.702;2022-08-06T10:53:10;0.80;;;0.52;;
23718;SDS011;43322;52.230;5.702;2022-08-06T10:55:39;1.80;;;0.50;;
23718;SDS011;43322;52.230;5.702;2022-08-06T10:58:06;0.50;;;0.50;;
23718;SDS011;43322;52.230;5.702;2022-08-06T11:00:34;0.88;;;0.50;;
23718;SDS011;43322;52.230;5.702;2022-08-06T11:03:06;2.45;;;0.47;;
23718;SDS011;43322;52.230;5.702;2022-08-06T11:05:41;0.68;;;0.63;;
23718;SDS011;43322;52.230;5.702;2022-08-06T11:08:15;0.57;;;0.57;;
23718;SDS011;43322;52.230;5.702;2022-08-06T11:10:58;3.10;;;0.43;;
23718;SDS011;43322;52.230;5.702;2022-08-06T11:13:47;0.50;;;0.40;;
23718;SDS011;43322;52.230;5.702;2022-08-06T11:16:22;0.40;;;0.40;;
23718;SDS011;43322;52.230;5.702;2022-08-06T11:18:59;0.45;;;0.45;;
23718;SDS011;43322;52.230;5.702;2022-08-06T11:21:41;1.88;;;0.60;;
23718;SDS011;43322;52.230;5.702;2022-08-06T11:24:09;0.47;;;0.40;;
23718;SDS011;43322;52.230;5.702;2022-08-06T11:26:39;0.55;;;0.40;;
23718;SDS011;43322;52.230;5.702;2022-08-06T11:29:07;0.60;;;0.60;;
23718;SDS011;43322;52.230;5.702;2022-08-06T11:31:36;0.55;;;0.50;;
23718;SDS011;43322;52.230;5.702;2022-08-06T11:34:11;0.70;;;0.70;;
23718;SDS011;43322;52.230;5.702;2022-08-06T11:36:47;0.80;;;0.60;;
23718;SDS011;43322;52.230;5.702;2022-08-06T11:39:20;0.77;;;0.50;;
23718;SDS011;43322;52.230;5.702;2022-08-06T11:41:50;0.63;;;0.60;;
23718;SDS011;43322;52.230;5.702;2022-08-06T11:44:19;1.58;;;0.60;;
23718;SDS011;43322;52.230;5.702;2022-08-06T11:46:47;0.60;;;0.60;;
23718;SDS011;43322;52.230;5.702;2022-08-06T11:49:16;0.63;;;0.50;;
23718;SDS011;43322;52.230;5.702;2022-08-06T11:51:46;1.33;;;0.65;;
23718;SDS011;43322;52.230;5.702;2022-08-06T11:54:15;0.50;;;0.50;;
23718;SDS011;43322;52.230;5.702;2022-08-06T12:00:06;0.82;;;0.82;;
23718;SDS011;43322;52.230;5.702;2022-08-06T12:02:54;0.90;;;0.65;;
23718;SDS011;43322;52.230;5.702;2022-08-06T12:13:51;0.70;;;0.70;;
23718;SDS011;43322;52.230;5.702;2022-08-06T12:16:25;1.75;;;0.77;;
23718;SDS011;43322;52.230;5.702;2022-08-06T12:18:52;0.80;;;0.75;;
23718;SDS011;43322;52.230;5.702;2022-08-06T12:21:19;0.70;;;0.70;;
23718;SDS011;43322;52.230;5.702;2022-08-06T12:23:48;0.80;;;0.80;;
23718;SDS011;43322;52.230;5.702;2022-08-06T12:26:15;2.05;;;0.85;;
23718;SDS011;43322;52.230;5.702;2022-08-06T12:28:42;1.08;;;0.70;;
23718;SDS011;43322;52.230;5.702;2022-08-06T12:31:11;0.77;;;0.60;;
23718;SDS011;43322;52.230;5.702;2022-08-06T12:33:40;0.80;;;0.80;;
23718;SDS011;43322;52.230;5.702;2022-08-06T12:36:08;0.80;;;0.80;;
23718;SDS011;43322;52.230;5.702;2022-08-06T12:38:35;1.38;;;1.27;;
23718;SDS011;43322;52.230;5.702;2022-08-06T12:41:03;1.10;;;0.80;;
23718;SDS011;43322;52.230;5.702;2022-08-06T12:43:31;0.90;;;0.90;;
23718;SDS011;43322;52.230;5.702;2022-08-06T12:46:00;0.70;;;0.70;;
23718;SDS011;43322;52.230;5.702;2022-08-06T12:48:29;0.82;;;0.82;;
23718;SDS011;43322;52.230;5.702;2022-08-06T12:51:04;0.75;;;0.75;;
23718;SDS011;43322;52.230;5.702;2022-08-06T12:53:32;1.45;;;1.00;;
23718;SDS011;43322;52.230;5.702;2022-08-06T12:56:03;0.95;;;0.93;;
23718;SDS011;43322;52.230;5.702;2022-08-06T12:58:35;0.90;;;0.85;;
23718;SDS011;43322;52.230;5.702;2022-08-06T13:01:05;1.75;;;0.98;;
23718;SDS011;43322;52.230;5.702;2022-08-06T13:03:37;2.00;;;0.90;;
23718;SDS011;43322;52.230;5.702;2022-08-06T13:06:08;1.08;;;1.00;;
23718;SDS011;43322;52.230;5.702;2022-08-06T13:08:35;1.23;;;1.13;;
23718;SDS011;43322;52.230;5.702;2022-08-06T13:11:03;1.20;;;0.73;;
23718;SDS011;43322;52.230;5.702;2022-08-06T13:13:33;1.35;;;0.80;;
23718;SDS011;43322;52.230;5.702;2022-08-06T13:16:03;1.27;;;0.80;;
23718;SDS011;43322;52.230;5.702;2022-08-06T13:18:32;0.70;;;0.70;;
23718;SDS011;43322;52.230;5.702;2022-08-06T13:21:01;0.93;;;0.60;;
23718;SDS011;43322;52.230;5.702;2022-08-06T13:23:29;0.70;;;0.70;;
23718;SDS011;43322;52.230;5.702;2022-08-06T13:25:58;3.03;;;0.70;;
23718;SDS011;43322;52.230;5.702;2022-08-06T13:28:37;0.80;;;0.55;;
23718;SDS011;43322;52.230;5.702;2022-08-06T13:31:16;1.65;;;0.50;;
23718;SDS011;43322;52.230;5.702;2022-08-06T13:33:57;1.45;;;0.65;;
23718;SDS011;43322;52.230;5.702;2022-08-06T13:36:27;0.88;;;0.60;;
23718;SDS011;43322;52.230;5.702;2022-08-06T13:38:54;0.57;;;0.57;;
23718;SDS011;43322;52.230;5.702;2022-08-06T13:41:23;0.60;;;0.60;;
23718;SDS011;43322;52.230;5.702;2022-08-06T13:43:51;1.17;;;0.70;;
23718;SDS011;43322;52.230;5.702;2022-08-06T13:46:19;2.03;;;0.70;;
23718;SDS011;43322;52.230;5.702;2022-08-06T13:48:47;0.77;;;0.65;;
23718;SDS011;43322;52.230;5.702;2022-08-06T13:51:16;0.60;;;0.60;;
23718;SDS011;43322;52.230;5.702;2022-08-06T13:53:46;1.40;;;0.90;;
23718;SDS011;43322;52.230;5.702;2022-08-06T13:56:13;0.70;;;0.70;;
23718;SDS011;43322;52.230;5.702;2022-08-06T13:58:40;0.70;;;0.70;;
23718;SDS011;43322;52.230;5.702;2022-08-06T14:01:07;2.03;;;1.20;;
23718;SDS011;43322;52.230;5.702;2022-08-06T14:03:34;0.98;;;0.98;;
23718;SDS011;43322;52.230;5.702;2022-08-06T14:06:01;0.80;;;0.80;;
23718;SDS011;43322;52.230;5.702;2022-08-06T14:08:27;0.75;;;0.75;;
23718;SDS011;43322;52.230;5.702;2022-08-06T14:10:55;0.85;;;0.85;;
23718;SDS011;43322;52.230;5.702;2022-08-06T14:13:22;1.88;;;0.77;;
23718;SDS011;43322;52.230;5.702;2022-08-06T14:15:50;0.70;;;0.70;;
23718;SDS011;43322;52.230;5.702;2022-08-06T14:18:18;0.70;;;0.70;;
23718;SDS011;43322;52.230;5.702;2022-08-06T14:20:46;0.70;;;0.70;;
23718;SDS011;43322;52.230;5.702;2022-08-06T14:23:13;0.65;;;0.60;;
23718;SDS011;43322;52.230;5.702;2022-08-06T14:25:40;0.70;;;0.70;;
23718;SDS011;43322;52.230;5.702;2022-08-06T14:28:09;0.80;;;0.70;;
23718;SDS011;43322;52.230;5.702;2022-08-06T14:30:36;3.40;;;0.70;;
23718;SDS011;43322;52.230;5.702;2022-08-06T14:33:03;0.88;;;0.88;;
23718;SDS011;43322;52.230;5.702;2022-08-06T14:35:33;1.00;;;0.90;;
23718;SDS011;43322;52.230;5.702;2022-08-06T14:38:01;0.73;;;0.73;;
23718;SDS011;43322;52.230;5.702;2022-08-06T14:40:28;0.77;;;0.77;;
23718;SDS011;43322;52.230;5.702;2022-08-06T14:43:15;0.75;;;0.75;;
23718;SDS011;43322;52.230;5.702;2022-08-06T14:45:59;2.35;;;0.80;;
23718;SDS011;43322;52.230;5.702;2022-08-06T14:48:26;1.20;;;0.80;;
23718;SDS011;43322;52.230;5.702;2022-08-06T14:50:53;0.90;;;0.90;;
23718;SDS011;43322;52.230;5.702;2022-08-06T14:53:19;1.98;;;0.90;;
23718;SDS011;43322;52.230;5.702;2022-08-06T14:55:46;3.95;;;0.90;;
23718;SDS011;43322;52.230;5.702;2022-08-06T14:58:14;1.00;;;1.00;;
23718;SDS011;43322;52.230;5.702;2022-08-06T15:00:41;0.80;;;0.80;;
23718;SDS011;43322;52.230;5.702;2022-08-06T15:03:12;0.73;;;0.73;;
23718;SDS011;43322;52.230;5.702;2022-08-06T15:05:39;0.90;;;0.90;;
23718;SDS011;43322;52.230;5.702;2022-08-06T15:08:07;0.50;;;0.50;;
23718;SDS011;43322;52.230;5.702;2022-08-06T15:10:34;1.55;;;0.80;;
23718;SDS011;43322;52.230;5.702;2022-08-06T15:13:00;0.70;;;0.70;;
23718;SDS011;43322;52.230;5.702;2022-08-06T15:15:29;0.82;;;0.70;;